createdAt,value
2022-10-05T00:01:46.034Z,18.05
2022-10-05T00:04:16.572Z,18.38
2022-10-05T00:06:45.519Z,19.30
2022-10-05T00:09:17.922Z,17.70
2022-10-05T00:11:46.330Z,18.70
2022-10-05T00:14:16.886Z,18.27
2022-10-05T00:16:46.986Z,17.50
2022-10-05T00:19:21.421Z,20.13
2022-10-05T00:21:49.758Z,18.38
2022-10-05T00:24:20.581Z,21.05
2022-10-05T00:26:55.407Z,19.63
2022-10-05T00:29:26.043Z,18.13
2022-10-05T00:31:55.886Z,16.30
2022-10-05T00:34:26.682Z,17.80
2022-10-05T00:36:54.923Z,16.30
2022-10-05T00:39:23.185Z,18.80
2022-10-05T00:42:00.581Z,16.77
2022-10-05T00:44:36.550Z,18.35
2022-10-05T00:47:16.035Z,14.85
2022-10-05T00:49:55.506Z,15.45
2022-10-05T00:52:26.495Z,16.85
2022-10-05T00:54:58.798Z,16.45
2022-10-05T00:57:32.816Z,16.08
2022-10-05T01:00:05.366Z,20.30
2022-10-05T01:02:41.316Z,16.15
2022-10-05T01:05:12.368Z,15.35
2022-10-05T01:07:43.797Z,14.75
2022-10-05T01:10:15.940Z,15.32
2022-10-05T01:12:48.622Z,15.10
2022-10-05T01:15:18.149Z,14.43
2022-10-05T01:17:49.866Z,14.45
2022-10-05T01:20:29.209Z,15.63
2022-10-05T01:23:21.154Z,15.55
2022-10-05T01:25:54.272Z,13.40
2022-10-05T01:28:27.545Z,15.82
2022-10-05T01:31:00.673Z,15.60
2022-10-05T01:33:31.964Z,23.08
2022-10-05T01:36:03.021Z,13.25
2022-10-05T01:38:37.584Z,14.35
2022-10-05T01:41:10.071Z,13.32
2022-10-05T01:43:42.446Z,14.27
2022-10-05T01:46:16.149Z,13.30
2022-10-05T01:48:49.216Z,13.85
2022-10-05T01:51:20.475Z,13.90
2022-10-05T01:53:55.010Z,14.98
2022-10-05T01:56:26.646Z,14.07
2022-10-05T01:59:00.514Z,14.40
2022-10-05T02:01:31.652Z,12.68
2022-10-05T02:04:04.245Z,14.13
2022-10-05T02:06:33.959Z,12.18
2022-10-05T02:09:04.189Z,14.10
2022-10-05T02:11:32.394Z,13.52
2022-10-05T02:14:03.130Z,13.57
2022-10-05T02:16:34.329Z,13.60
2022-10-05T02:19:04.197Z,13.15
2022-10-05T02:21:32.415Z,11.50
2022-10-05T02:24:02.677Z,11.80
2022-10-05T02:26:30.992Z,13.40
2022-10-05T02:29:00.429Z,11.10
2022-10-05T02:31:33.532Z,11.63
2022-10-05T02:34:27.497Z,12.50
2022-10-05T02:37:13.850Z,12.98
2022-10-05T02:39:49.014Z,12.00
2022-10-05T02:42:20.522Z,11.60
2022-10-05T02:44:52.579Z,10.57
2022-10-05T02:47:25.060Z,10.30
2022-10-05T02:49:55.145Z,12.73
2022-10-05T02:52:26.634Z,11.27
2022-10-05T02:55:00.172Z,11.85
2022-10-05T02:57:29.918Z,11.27
2022-10-05T03:00:01.761Z,10.13
2022-10-05T03:02:35.110Z,11.18
2022-10-05T03:05:07.874Z,13.52
2022-10-05T03:07:40.235Z,11.10
2022-10-05T03:10:11.138Z,10.10
2022-10-05T03:12:46.656Z,10.60
2022-10-05T03:15:21.801Z,9.68
2022-10-05T03:17:56.323Z,11.52
2022-10-05T03:20:31.551Z,10.60
2022-10-05T03:23:00.866Z,11.68
2022-10-05T03:25:43.903Z,9.82
2022-10-05T03:28:15.948Z,9.95
2022-10-05T03:30:46.958Z,13.70
2022-10-05T03:33:20.502Z,9.85
2022-10-05T03:35:52.690Z,11.63
2022-10-05T03:38:24.898Z,9.68
2022-10-05T03:40:55.511Z,12.43
2022-10-05T03:43:35.717Z,9.27
2022-10-05T03:46:05.854Z,9.73
2022-10-05T03:48:38.873Z,9.57
2022-10-05T03:51:09.329Z,8.80
2022-10-05T03:53:40.955Z,9.32
2022-10-05T03:56:14.908Z,10.13
2022-10-05T03:58:46.433Z,8.82
2022-10-05T04:01:17.130Z,9.75
2022-10-05T04:03:48.484Z,9.57
2022-10-05T04:06:18.290Z,8.73
2022-10-05T04:08:48.756Z,10.95
2022-10-05T04:11:21.857Z,11.05
2022-10-05T04:13:51.870Z,10.10
2022-10-05T04:16:22.584Z,9.18
2022-10-05T04:18:56.497Z,8.63
2022-10-05T04:21:26.358Z,9.52
2022-10-05T04:23:58.986Z,8.60
2022-10-05T04:26:33.467Z,8.60
2022-10-05T04:29:06.252Z,8.02
2022-10-05T04:31:44.970Z,9.90
2022-10-05T04:34:18.795Z,8.82
2022-10-05T04:36:49.643Z,8.95
2022-10-05T04:39:22.031Z,9.60
2022-10-05T04:41:57.302Z,8.38
2022-10-05T04:44:37.244Z,7.95
2022-10-05T04:47:31.181Z,9.45
2022-10-05T04:50:14.317Z,8.57
2022-10-05T04:53:01.742Z,7.03
2022-10-05T04:55:32.667Z,9.23
2022-10-05T04:58:05.218Z,8.70
2022-10-05T05:00:35.352Z,7.30
2022-10-05T05:03:30.533Z,8.67
2022-10-05T05:06:16.806Z,8.55
2022-10-05T05:09:25.700Z,8.50
2022-10-05T05:12:09.235Z,7.65
2022-10-05T05:14:45.775Z,7.20
2022-10-05T05:17:22.403Z,7.88
2022-10-05T05:19:54.412Z,8.77
2022-10-05T05:22:27.092Z,8.77
2022-10-05T05:25:04.826Z,7.05
2022-10-05T05:27:40.726Z,9.93
2022-10-05T05:30:16.999Z,10.60
2022-10-05T05:32:50.064Z,14.40
2022-10-05T05:36:06.019Z,14.32
2022-10-05T05:38:36.810Z,14.75
2022-10-05T05:41:10.344Z,18.08
2022-10-05T05:44:02.906Z,14.65
2022-10-05T05:47:01.598Z,17.42
2022-10-05T05:49:29.275Z,19.17
2022-10-05T05:51:59.329Z,17.77
2022-10-05T05:54:32.859Z,14.80
2022-10-05T05:57:09.113Z,16.65
2022-10-05T05:59:55.942Z,14.27
2022-10-05T06:02:27.143Z,14.20
2022-10-05T06:04:58.012Z,17.13
2022-10-05T06:07:30.746Z,23.35
2022-10-05T06:10:07.118Z,14.48
2022-10-05T06:12:46.853Z,16.45
2022-10-05T06:15:29.612Z,19.30
2022-10-05T06:17:58.965Z,16.48
2022-10-05T06:20:29.766Z,19.33
2022-10-05T06:23:00.195Z,19.42
2022-10-05T06:25:33.318Z,17.08
2022-10-05T06:28:05.263Z,18.95
2022-10-05T06:30:42.756Z,15.02
2022-10-05T06:33:18.045Z,13.65
2022-10-05T06:35:57.490Z,15.40
2022-10-05T06:38:39.765Z,16.35
2022-10-05T06:41:14.786Z,15.43
2022-10-05T06:43:50.335Z,14.63
2022-10-05T06:46:38.903Z,13.15
2022-10-05T06:49:38.290Z,13.73
2022-10-05T06:52:27.782Z,14.13
2022-10-05T06:55:04.173Z,18.50
2022-10-05T06:57:59.331Z,13.93
2022-10-05T07:00:30.246Z,16.77
2022-10-05T07:03:02.063Z,24.50
2022-10-05T07:05:47.913Z,40.40
2022-10-05T07:08:18.826Z,51.47
2022-10-05T07:10:55.230Z,80.65
2022-10-05T07:13:44.229Z,90.78
2022-10-05T07:16:14.982Z,72.70
2022-10-05T07:19:04.871Z,78.25
2022-10-05T07:21:35.829Z,69.28
2022-10-05T07:24:07.582Z,79.20
2022-10-05T07:26:39.186Z,67.07
2022-10-05T07:29:33.915Z,65.95
2022-10-05T07:32:12.170Z,60.35
2022-10-05T07:34:47.647Z,56.75
2022-10-05T07:37:36.170Z,53.85
2022-10-05T07:40:10.361Z,56.88
2022-10-05T07:42:52.130Z,53.95
2022-10-05T07:45:29.522Z,49.95
2022-10-05T07:47:59.449Z,53.00
2022-10-05T07:50:30.443Z,48.88
2022-10-05T07:53:00.676Z,52.47
2022-10-05T07:55:33.258Z,47.92
2022-10-05T07:58:07.267Z,50.65
2022-10-05T08:00:58.222Z,36.05
2022-10-05T08:03:31.632Z,20.42
2022-10-05T08:06:00.307Z,20.70
2022-10-05T08:08:31.189Z,18.30
2022-10-05T08:11:01.805Z,18.58
2022-10-05T08:13:32.408Z,15.15
2022-10-05T08:16:03.640Z,15.55
2022-10-05T08:18:41.447Z,14.00
2022-10-05T08:21:12.175Z,16.83
2022-10-05T08:23:43.460Z,16.95
2022-10-05T08:26:17.809Z,35.15
2022-10-05T08:28:49.274Z,19.80
2022-10-05T08:31:21.968Z,21.60
2022-10-05T08:33:56.248Z,23.52
2022-10-05T08:36:30.519Z,26.42
2022-10-05T08:39:04.370Z,26.17
2022-10-05T08:42:01.199Z,28.45
2022-10-05T08:45:02.067Z,24.90
2022-10-05T08:48:13.336Z,21.88
2022-10-05T08:51:04.359Z,28.40
2022-10-05T08:53:47.152Z,27.13
2022-10-05T08:56:30.562Z,28.90
2022-10-05T08:59:16.869Z,27.02
2022-10-05T09:01:55.656Z,26.05
2022-10-05T09:04:36.147Z,30.40
2022-10-05T09:07:15.630Z,35.08
2022-10-05T09:10:06.321Z,25.60
2022-10-05T09:12:55.006Z,17.75
2022-10-05T09:15:36.063Z,27.13
2022-10-05T09:18:27.615Z,35.38
2022-10-05T09:20:59.251Z,28.77
2022-10-05T09:23:38.386Z,29.00
2022-10-05T09:26:10.040Z,25.48
2022-10-05T09:28:43.474Z,30.65
2022-10-05T09:31:36.907Z,24.35
2022-10-05T09:34:20.174Z,22.15
2022-10-05T09:40:20.243Z,22.83
2022-10-05T09:43:23.923Z,24.17
2022-10-05T09:46:31.518Z,20.55
2022-10-05T09:49:28.734Z,20.67
2022-10-05T09:52:19.177Z,18.42
2022-10-05T09:55:20.238Z,17.40
2022-10-05T09:58:14.459Z,17.83
2022-10-05T10:01:03.636Z,16.33
2022-10-05T10:04:01.519Z,17.13
2022-10-05T10:06:41.872Z,15.18
2022-10-05T10:09:25.543Z,18.02
2022-10-05T10:12:05.787Z,16.42
2022-10-05T10:15:19.199Z,15.88
2022-10-05T10:18:23.703Z,14.13
2022-10-05T10:21:14.546Z,17.23
2022-10-05T10:24:00.464Z,15.95
2022-10-05T10:27:01.779Z,13.40
2022-10-05T10:29:46.087Z,17.27
2022-10-05T10:32:21.558Z,14.85
2022-10-05T10:35:32.803Z,14.82
2022-10-05T10:38:33.535Z,15.98
2022-10-05T10:41:44.425Z,14.95
2022-10-05T10:45:03.452Z,13.85
2022-10-05T10:48:01.489Z,13.43
2022-10-05T10:50:59.767Z,13.80
2022-10-05T10:53:38.222Z,15.07
2022-10-05T10:56:30.892Z,13.90
2022-10-05T10:59:41.744Z,12.43
2022-10-05T11:02:44.105Z,12.27
2022-10-05T11:05:25.678Z,13.88
2022-10-05T11:08:00.541Z,13.20
2022-10-05T11:11:00.015Z,14.10
2022-10-05T11:13:38.367Z,13.38
2022-10-05T11:16:34.275Z,12.93
2022-10-05T11:19:52.615Z,12.70
2022-10-05T11:22:52.544Z,13.63
2022-10-05T11:25:53.463Z,11.88
2022-10-05T11:28:31.762Z,13.45
2022-10-05T11:31:39.908Z,35.67
2022-10-05T11:34:45.701Z,28.48
2022-10-05T11:37:50.475Z,24.17
2022-10-05T11:40:34.655Z,25.27
2022-10-05T11:43:39.458Z,26.15
2022-10-05T11:46:12.482Z,23.67
2022-10-05T11:49:01.738Z,20.67
2022-10-05T11:52:02.727Z,21.45
2022-10-05T11:55:11.315Z,20.33
2022-10-05T11:57:44.174Z,21.85
2022-10-05T12:00:15.514Z,21.13
2022-10-05T12:03:22.641Z,23.85
2022-10-05T12:05:58.254Z,23.35
2022-10-05T12:08:30.980Z,25.88
2022-10-05T12:11:07.960Z,25.83
2022-10-05T12:13:40.804Z,25.50
2022-10-05T12:16:11.766Z,25.35
2022-10-05T12:18:50.008Z,24.55
2022-10-05T12:21:24.323Z,24.30
2022-10-05T12:23:55.113Z,27.10
2022-10-05T12:26:26.457Z,27.90
2022-10-05T12:28:57.133Z,23.88
2022-10-05T12:31:31.035Z,23.55
2022-10-05T12:34:24.607Z,22.15
2022-10-05T12:40:06.393Z,15.77
2022-10-05T12:42:41.601Z,17.65
2022-10-05T12:45:17.902Z,16.50
2022-10-05T12:47:58.554Z,34.80
2022-10-05T12:50:29.174Z,43.85
2022-10-05T12:53:15.931Z,47.15
2022-10-05T12:55:48.023Z,39.17
2022-10-05T12:58:35.934Z,33.17
2022-10-05T13:01:07.828Z,35.47
2022-10-05T13:03:38.507Z,34.65
2022-10-05T13:06:11.757Z,30.75
2022-10-05T13:08:42.901Z,24.88
2022-10-05T13:11:16.296Z,27.40
2022-10-05T13:13:50.074Z,24.58
2022-10-05T13:16:24.460Z,34.58
2022-10-05T13:19:01.400Z,32.92
2022-10-05T13:21:32.458Z,36.20
2022-10-05T13:24:02.765Z,29.58
2022-10-05T13:26:40.805Z,29.60
2022-10-05T13:29:16.523Z,29.58
2022-10-05T13:31:46.961Z,31.02
2022-10-05T13:34:22.414Z,25.73
2022-10-05T13:36:57.903Z,27.38
2022-10-05T13:39:32.059Z,25.92
2022-10-05T13:42:03.073Z,29.38
2022-10-05T13:44:35.335Z,27.65
2022-10-05T13:47:06.310Z,27.40
2022-10-05T13:49:40.639Z,27.52
2022-10-05T13:52:18.118Z,25.35
2022-10-05T13:54:49.150Z,26.95
2022-10-05T13:57:23.460Z,25.55
2022-10-05T13:59:55.430Z,27.95
2022-10-05T14:02:29.102Z,25.90
2022-10-05T14:05:01.556Z,28.02
2022-10-05T14:07:34.410Z,23.65
2022-10-05T14:10:04.670Z,25.67
2022-10-05T14:12:40.210Z,24.63
2022-10-05T14:15:20.988Z,25.92
2022-10-05T14:17:51.544Z,24.50
2022-10-05T14:20:23.167Z,23.88
2022-10-05T14:22:55.769Z,24.15
2022-10-05T14:25:24.375Z,24.02
2022-10-05T14:28:02.037Z,23.30
2022-10-05T14:30:32.559Z,24.75
2022-10-05T14:33:10.195Z,22.67
2022-10-05T14:35:49.171Z,22.77
2022-10-05T14:38:19.859Z,25.42
2022-10-05T14:40:48.182Z,24.88
2022-10-05T14:43:20.316Z,25.52
2022-10-05T14:46:01.456Z,30.00
2022-10-05T14:48:30.919Z,36.42
2022-10-05T14:51:03.418Z,41.40
2022-10-05T14:53:39.619Z,40.80
2022-10-05T14:56:22.074Z,36.58
2022-10-05T14:59:08.979Z,37.00
2022-10-05T15:01:39.366Z,35.00
2022-10-05T15:04:17.009Z,32.60
2022-10-05T15:06:53.298Z,33.08
2022-10-05T15:09:35.035Z,32.80
2022-10-05T15:12:03.757Z,31.13
2022-10-05T15:14:33.132Z,31.45
2022-10-05T15:17:04.530Z,31.52
2022-10-05T15:19:40.230Z,28.75
2022-10-05T15:22:18.885Z,30.83
2022-10-05T15:24:53.343Z,31.02
2022-10-05T15:27:25.396Z,31.25
2022-10-05T15:30:04.187Z,28.73
2022-10-05T15:32:46.208Z,29.98
2022-10-05T15:35:36.899Z,33.10
2022-10-05T15:38:17.905Z,29.40
2022-10-05T15:40:47.986Z,34.35
2022-10-05T15:43:18.935Z,27.27
2022-10-05T15:45:53.912Z,29.17
2022-10-05T15:48:29.256Z,27.42
2022-10-05T15:51:01.732Z,25.90
2022-10-05T15:53:33.485Z,28.92
2022-10-05T15:56:03.927Z,31.00
2022-10-05T15:58:43.607Z,27.77
2022-10-05T16:01:12.624Z,30.17
2022-10-05T16:03:47.501Z,25.02
2022-10-05T16:06:48.683Z,26.33
2022-10-05T16:09:24.733Z,32.08
2022-10-05T16:11:59.226Z,27.55
2022-10-05T16:14:34.611Z,24.33
2022-10-05T16:17:13.762Z,25.85
2022-10-05T16:19:47.088Z,27.77
2022-10-05T16:22:20.866Z,23.95
2022-10-05T16:25:02.790Z,25.95
2022-10-05T16:27:36.619Z,27.55
2022-10-05T16:30:06.182Z,26.90
2022-10-05T16:32:36.924Z,25.88
2022-10-05T16:35:14.697Z,29.55
2022-10-05T16:37:47.359Z,30.48
2022-10-05T16:40:20.708Z,28.23
2022-10-05T16:42:55.580Z,27.73
2022-10-05T16:45:45.136Z,26.83
2022-10-05T16:48:16.807Z,26.42
2022-10-05T16:50:51.638Z,26.98
2022-10-05T16:53:22.290Z,28.13
2022-10-05T16:55:53.083Z,24.83
2022-10-05T16:58:24.023Z,24.67
2022-10-05T17:01:06.635Z,25.60
2022-10-05T17:03:41.649Z,24.88
2022-10-05T17:06:38.492Z,25.30
2022-10-05T17:09:27.592Z,27.08
2022-10-05T17:12:03.315Z,23.02
2022-10-05T17:14:42.106Z,23.50
2022-10-05T17:17:24.586Z,23.40
2022-10-05T17:19:59.271Z,23.75
2022-10-05T17:22:32.307Z,24.73
2022-10-05T17:25:05.204Z,23.98
2022-10-05T17:27:36.073Z,22.88
2022-10-05T17:30:22.779Z,24.45
2022-10-05T17:33:04.725Z,37.92
2022-10-05T17:36:13.721Z,35.72
2022-10-05T17:39:14.818Z,41.90
2022-10-05T17:41:43.626Z,45.15
2022-10-05T17:44:32.973Z,47.60
2022-10-05T17:47:01.576Z,44.88
2022-10-05T17:50:14.353Z,45.78
2022-10-05T17:53:02.393Z,45.17
2022-10-05T17:55:50.917Z,43.25
2022-10-05T17:59:01.835Z,44.33
2022-10-05T18:01:32.833Z,43.00
2022-10-05T18:04:26.665Z,42.13
2022-10-05T18:07:02.691Z,42.67
2022-10-05T18:09:33.357Z,42.00
2022-10-05T18:12:12.431Z,40.53
2022-10-05T18:15:00.120Z,43.63
2022-10-05T18:17:41.262Z,38.78
2022-10-05T18:20:31.662Z,40.40
2022-10-05T18:23:29.604Z,47.78
2022-10-05T18:26:03.251Z,47.58
2022-10-05T18:28:40.908Z,43.97
2022-10-05T18:31:17.447Z,43.72
2022-10-05T18:34:13.556Z,45.22
2022-10-05T18:36:52.784Z,52.15
2022-10-05T18:39:29.788Z,52.67
2022-10-05T18:42:03.648Z,48.92
2022-10-05T18:44:37.810Z,45.97
2022-10-05T18:47:10.516Z,48.78
2022-10-05T18:49:47.351Z,50.33
2022-10-05T18:52:19.358Z,51.60
2022-10-05T18:54:55.030Z,51.75
2022-10-05T18:57:37.167Z,54.55
2022-10-05T19:00:11.307Z,46.25
2022-10-05T19:02:43.182Z,49.17
2022-10-05T19:05:45.813Z,57.47
2022-10-05T19:08:10.719Z,53.10
2022-10-05T19:10:42.770Z,47.92
2022-10-05T19:13:17.526Z,46.45
2022-10-05T19:15:50.947Z,51.20
2022-10-05T19:18:31.996Z,46.75
2022-10-05T19:21:04.063Z,48.28
2022-10-05T19:23:48.325Z,45.28
2022-10-05T19:26:18.129Z,45.97
2022-10-05T19:28:53.331Z,47.03
2022-10-05T19:31:29.729Z,37.75
2022-10-05T19:34:04.332Z,42.00
2022-10-05T19:36:41.535Z,39.50
2022-10-05T19:39:12.190Z,40.75
2022-10-05T19:41:54.919Z,42.97
2022-10-05T19:44:30.887Z,43.40
2022-10-05T19:47:02.766Z,37.60
2022-10-05T19:49:49.204Z,41.97
2022-10-05T19:52:22.834Z,42.33
2022-10-05T19:55:02.292Z,36.38
2022-10-05T19:57:30.967Z,40.20
2022-10-05T20:00:02.775Z,37.05
2022-10-05T20:02:38.659Z,36.35
2022-10-05T20:05:13.720Z,36.92
2022-10-05T20:07:43.466Z,37.58
2022-10-05T20:10:29.264Z,38.22
2022-10-05T20:12:58.524Z,36.45
2022-10-05T20:15:45.229Z,35.15
2022-10-05T20:19:06.198Z,33.65
2022-10-05T20:21:49.009Z,33.20
2022-10-05T20:24:18.463Z,35.70
2022-10-05T20:27:05.328Z,32.25
2022-10-05T20:29:35.700Z,41.63
2022-10-05T20:32:08.324Z,37.22
2022-10-05T20:34:41.479Z,33.60
2022-10-05T20:37:10.706Z,32.55
2022-10-05T20:39:39.202Z,34.95
2022-10-05T20:42:07.981Z,34.85
2022-10-05T20:44:36.854Z,31.92
2022-10-05T20:47:05.741Z,33.42
2022-10-05T20:49:35.355Z,32.42
2022-10-05T20:52:05.115Z,30.17
2022-10-05T20:54:33.742Z,32.05
2022-10-05T20:57:02.495Z,30.77
2022-10-05T20:59:30.833Z,33.63
2022-10-05T21:01:59.422Z,30.75
2022-10-05T21:04:36.083Z,32.30
2022-10-05T21:07:10.471Z,31.23
2022-10-05T21:09:43.653Z,31.42
2022-10-05T21:12:12.147Z,30.52
2022-10-05T21:14:40.735Z,29.45
2022-10-05T21:17:09.710Z,29.55
2022-10-05T21:19:39.759Z,28.75
2022-10-05T21:22:09.944Z,28.98
2022-10-05T21:24:38.696Z,28.20
2022-10-05T21:27:06.996Z,28.88
2022-10-05T21:29:36.606Z,30.85
2022-10-05T21:32:08.662Z,31.98
2022-10-05T21:34:37.071Z,34.08
2022-10-05T21:37:05.467Z,31.42
2022-10-05T21:39:36.830Z,27.35
2022-10-05T21:42:05.617Z,26.73
2022-10-05T21:44:34.009Z,28.00
2022-10-05T21:47:02.531Z,28.98
2022-10-05T21:49:31.317Z,28.92
2022-10-05T21:52:00.175Z,27.80
2022-10-05T21:54:28.768Z,28.65
2022-10-05T21:56:58.554Z,28.40
2022-10-05T21:59:29.098Z,27.17
2022-10-05T22:01:57.772Z,31.23
2022-10-05T22:04:26.392Z,25.38
2022-10-05T22:06:54.975Z,27.73
2022-10-05T22:09:23.666Z,27.13
2022-10-05T22:11:52.231Z,25.65
2022-10-05T22:14:22.027Z,25.30
2022-10-05T22:16:50.466Z,25.60
2022-10-05T22:19:20.227Z,26.40
2022-10-05T22:21:49.536Z,28.88
2022-10-05T22:24:17.880Z,25.70
2022-10-05T22:26:46.688Z,26.33
2022-10-05T22:29:16.077Z,23.50
2022-10-05T22:31:48.490Z,25.23
2022-10-05T22:34:16.991Z,24.15
2022-10-05T22:36:45.978Z,25.40
2022-10-05T22:39:14.480Z,26.15
2022-10-05T22:41:42.891Z,24.33
2022-10-05T22:44:11.207Z,24.08
2022-10-05T22:46:39.804Z,24.58
2022-10-05T22:49:09.543Z,24.25
2022-10-05T22:51:37.860Z,24.35
2022-10-05T22:54:06.523Z,26.80
2022-10-05T22:56:35.042Z,26.70
2022-10-05T22:59:03.286Z,23.58
2022-10-05T23:01:31.661Z,25.05
2022-10-05T23:03:59.972Z,24.63
2022-10-05T23:06:29.743Z,21.88
2022-10-05T23:08:58.278Z,23.90
2022-10-05T23:11:27.431Z,22.25
2022-10-05T23:13:57.058Z,22.80
2022-10-05T23:16:26.956Z,22.83
2022-10-05T23:18:55.607Z,23.15
2022-10-05T23:21:25.127Z,22.02
2022-10-05T23:23:54.825Z,24.50
2022-10-05T23:26:23.741Z,22.30
2022-10-05T23:28:52.183Z,22.80
2022-10-05T23:31:21.347Z,20.63
2022-10-05T23:33:49.679Z,22.00
2022-10-05T23:36:18.945Z,20.98
2022-10-05T23:38:47.245Z,21.33
2022-10-05T23:41:17.311Z,20.85
2022-10-05T23:43:45.612Z,21.02
2022-10-05T23:46:14.453Z,20.25
2022-10-05T23:48:42.978Z,21.30
2022-10-05T23:51:12.841Z,22.17
2022-10-05T23:53:43.947Z,20.77
2022-10-05T23:56:12.367Z,19.75
2022-10-05T23:58:42.193Z,19.52
